createdAt,value
2022-12-29T00:01:43.229Z,99701.50
2022-12-29T00:04:15.017Z,99708.62
2022-12-29T00:06:43.162Z,99714.25
2022-12-29T00:09:13.665Z,99714.94
2022-12-29T00:11:40.829Z,99712.91
2022-12-29T00:14:28.024Z,99712.00
2022-12-29T00:16:55.492Z,99704.84
2022-12-29T00:19:41.815Z,99699.09
2022-12-29T00:22:29.050Z,99702.75
2022-12-29T00:25:15.168Z,99700.00
2022-12-29T00:28:06.667Z,99709.28
2022-12-29T00:30:53.852Z,99708.72
2022-12-29T00:33:40.495Z,99707.56
2022-12-29T00:36:08.979Z,99707.62
2022-12-29T00:38:56.770Z,99705.81
2022-12-29T00:41:42.662Z,99704.19
2022-12-29T00:44:11.597Z,99692.81
2022-12-29T00:46:39.176Z,99698.41
2022-12-29T00:49:25.752Z,99703.00
2022-12-29T00:51:53.319Z,99707.53
2022-12-29T00:54:20.563Z,99708.03
2022-12-29T00:56:48.670Z,99701.53
2022-12-29T00:59:18.110Z,99696.56
2022-12-29T01:01:46.191Z,99700.44
2022-12-29T01:04:13.576Z,99701.13
2022-12-29T01:06:41.897Z,99700.69
2022-12-29T01:09:28.297Z,99700.69
2022-12-29T01:11:56.217Z,99694.13
2022-12-29T01:14:23.807Z,99701.13
2022-12-29T01:16:51.215Z,99695.28
2022-12-29T01:19:19.001Z,99702.75
2022-12-29T01:21:46.569Z,99696.91
2022-12-29T01:24:14.373Z,99694.97
2022-12-29T01:26:41.883Z,99696.47
2022-12-29T01:29:09.246Z,99690.03
2022-12-29T01:31:36.563Z,99693.19
2022-12-29T01:34:04.321Z,99691.72
2022-12-29T01:36:33.240Z,99696.56
2022-12-29T01:39:00.448Z,99696.22
2022-12-29T01:41:28.209Z,99693.63
2022-12-29T01:44:00.210Z,99699.91
2022-12-29T01:46:29.365Z,99695.38
2022-12-29T01:49:00.700Z,99689.06
2022-12-29T01:51:28.182Z,99693.22
2022-12-29T01:53:55.473Z,99689.44
2022-12-29T01:56:23.256Z,99684.28
2022-12-29T01:58:53.369Z,99685.19
2022-12-29T02:01:20.624Z,99681.59
2022-12-29T02:03:48.563Z,99676.22
2022-12-29T02:06:17.296Z,99687.25
2022-12-29T02:08:46.380Z,99678.16
2022-12-29T02:11:13.928Z,99676.03
2022-12-29T02:13:41.731Z,99678.25
2022-12-29T02:16:08.939Z,99661.19
2022-12-29T02:18:51.719Z,99662.22
2022-12-29T02:21:35.801Z,99658.94
2022-12-29T02:24:12.145Z,99658.03
2022-12-29T02:26:59.832Z,99655.09
2022-12-29T02:29:39.117Z,99655.12
2022-12-29T02:32:08.774Z,99649.16
2022-12-29T02:34:38.871Z,99648.16
2022-12-29T02:37:16.375Z,99642.59
2022-12-29T02:39:47.656Z,99646.88
2022-12-29T02:42:17.582Z,99642.00
2022-12-29T02:45:18.159Z,99637.97
2022-12-29T02:48:04.388Z,99634.91
2022-12-29T02:50:36.329Z,99640.25
2022-12-29T02:53:05.797Z,99637.38
2022-12-29T02:55:35.056Z,99629.94
2022-12-29T02:58:14.522Z,99629.72
2022-12-29T03:00:46.533Z,99628.13
2022-12-29T03:03:23.111Z,99628.59
2022-12-29T03:06:08.875Z,99623.78
2022-12-29T03:08:36.387Z,99619.97
2022-12-29T03:11:05.301Z,99631.62
2022-12-29T03:14:04.877Z,99633.88
2022-12-29T03:16:35.823Z,99637.16
2022-12-29T03:19:06.198Z,99633.09
2022-12-29T03:21:57.765Z,99630.34
2022-12-29T03:24:26.877Z,99633.94
2022-12-29T03:26:56.256Z,99631.44
2022-12-29T03:29:23.481Z,99625.38
2022-12-29T03:31:51.061Z,99620.47
2022-12-29T03:34:19.046Z,99625.03
2022-12-29T03:36:51.165Z,99615.16
2022-12-29T03:39:18.657Z,99630.22
2022-12-29T03:41:46.217Z,99630.09
2022-12-29T03:44:14.230Z,99628.37
2022-12-29T03:46:41.942Z,99620.81
2022-12-29T03:49:09.400Z,99619.28
2022-12-29T03:51:36.655Z,99611.25
2022-12-29T03:54:06.040Z,99620.50
2022-12-29T03:56:33.450Z,99618.66
2022-12-29T03:59:02.458Z,99622.69
2022-12-29T04:01:30.173Z,99624.28
2022-12-29T04:03:57.735Z,99624.91
2022-12-29T04:06:24.925Z,99620.87
2022-12-29T04:08:52.404Z,99619.59
2022-12-29T04:11:20.708Z,99624.19
2022-12-29T04:13:48.060Z,99623.69
2022-12-29T04:16:15.782Z,99630.16
2022-12-29T04:18:43.369Z,99620.56
2022-12-29T04:21:10.710Z,99612.78
2022-12-29T04:23:40.156Z,99617.22
2022-12-29T04:26:10.723Z,99621.09
2022-12-29T04:28:38.901Z,99624.44
2022-12-29T04:31:06.872Z,99634.28
2022-12-29T04:33:35.127Z,99627.94
2022-12-29T04:36:02.666Z,99621.06
2022-12-29T04:38:29.930Z,99615.47
2022-12-29T04:40:59.807Z,99611.41
2022-12-29T04:43:27.613Z,99624.28
2022-12-29T04:45:56.153Z,99617.31
2022-12-29T04:48:23.876Z,99619.00
2022-12-29T04:50:51.566Z,99609.66
2022-12-29T04:53:18.917Z,99607.75
2022-12-29T04:55:49.558Z,99611.38
2022-12-29T04:58:22.339Z,99608.34
2022-12-29T05:00:51.381Z,99610.81
2022-12-29T05:03:19.115Z,99614.88
2022-12-29T05:05:46.508Z,99618.59
2022-12-29T05:08:14.054Z,99608.25
2022-12-29T05:10:44.750Z,99618.28
2022-12-29T05:13:12.342Z,99603.50
2022-12-29T05:15:40.201Z,99607.88
2022-12-29T05:18:07.561Z,99615.25
2022-12-29T05:20:34.830Z,99617.03
2022-12-29T05:23:03.518Z,99620.06
2022-12-29T05:25:30.797Z,99614.81
2022-12-29T05:27:58.455Z,99618.66
2022-12-29T05:30:26.454Z,99626.47
2022-12-29T05:32:53.840Z,99616.66
2022-12-29T05:35:21.074Z,99613.44
2022-12-29T05:37:48.533Z,99617.81
2022-12-29T05:40:15.876Z,99618.88
2022-12-29T05:42:45.277Z,99616.41
2022-12-29T05:45:13.154Z,99617.34
2022-12-29T05:47:41.528Z,99619.56
2022-12-29T05:50:08.907Z,99604.59
2022-12-29T05:52:39.413Z,99616.34
2022-12-29T05:55:07.192Z,99602.66
2022-12-29T05:57:35.385Z,99601.88
2022-12-29T06:00:04.231Z,99600.19
2022-12-29T06:02:41.916Z,99593.72
2022-12-29T06:05:09.706Z,99597.25
2022-12-29T06:07:37.330Z,99598.09
2022-12-29T06:10:06.039Z,99592.22
2022-12-29T06:12:33.973Z,99595.25
2022-12-29T06:15:01.232Z,99603.44
2022-12-29T06:17:28.625Z,99600.72
2022-12-29T06:19:56.150Z,99604.22
2022-12-29T06:22:23.443Z,99597.41
2022-12-29T06:24:50.644Z,99591.94
2022-12-29T06:27:20.154Z,99606.63
2022-12-29T06:29:48.256Z,99608.88
2022-12-29T06:32:15.491Z,99606.53
2022-12-29T06:34:45.718Z,99623.59
2022-12-29T06:37:14.178Z,99622.31
2022-12-29T06:39:41.638Z,99612.19
2022-12-29T06:42:10.444Z,99613.84
2022-12-29T06:44:38.393Z,99611.22
2022-12-29T06:47:05.821Z,99616.41
2022-12-29T06:49:33.259Z,99623.50
2022-12-29T06:52:01.730Z,99616.41
2022-12-29T06:54:28.890Z,99626.22
2022-12-29T06:56:56.366Z,99625.66
2022-12-29T06:59:23.578Z,99643.44
2022-12-29T07:01:50.959Z,99633.16
2022-12-29T07:04:18.694Z,99633.50
2022-12-29T07:06:45.860Z,99626.84
2022-12-29T07:09:13.069Z,99630.25
2022-12-29T07:11:40.524Z,99631.53
2022-12-29T07:14:07.681Z,99633.66
2022-12-29T07:16:35.462Z,99639.66
2022-12-29T07:19:02.954Z,99639.72
2022-12-29T07:21:30.180Z,99643.78
2022-12-29T07:23:57.342Z,99643.47
2022-12-29T07:26:25.269Z,99638.03
2022-12-29T07:28:52.448Z,99638.00
2022-12-29T07:31:20.487Z,99631.50
2022-12-29T07:33:48.732Z,99629.47
2022-12-29T07:36:18.011Z,99633.13
2022-12-29T07:38:45.428Z,99636.31
2022-12-29T07:41:12.951Z,99641.00
2022-12-29T07:43:40.394Z,99637.97
2022-12-29T07:46:14.562Z,99640.88
2022-12-29T07:48:57.495Z,99635.81
2022-12-29T07:51:24.708Z,99634.50
2022-12-29T07:53:51.903Z,99630.88
2022-12-29T07:56:19.333Z,99635.78
2022-12-29T07:58:46.501Z,99638.62
2022-12-29T08:01:13.686Z,99641.97
2022-12-29T08:03:42.356Z,99635.28
2022-12-29T08:06:13.827Z,99642.13
2022-12-29T08:08:41.393Z,99642.41
2022-12-29T08:11:08.550Z,99637.38
2022-12-29T08:13:35.719Z,99633.66
2022-12-29T08:16:03.326Z,99634.03
2022-12-29T08:18:30.545Z,99634.75
2022-12-29T08:21:02.279Z,99633.03
2022-12-29T08:23:29.751Z,99634.44
2022-12-29T08:26:00.552Z,99630.84
2022-12-29T08:28:27.966Z,99620.94
2022-12-29T08:30:57.978Z,99619.44
2022-12-29T08:33:25.300Z,99620.09
2022-12-29T08:35:52.457Z,99622.44
2022-12-29T08:38:19.896Z,99618.97
2022-12-29T08:40:47.064Z,99609.00
2022-12-29T08:43:18.483Z,99606.63
2022-12-29T08:45:46.179Z,99618.53
2022-12-29T08:48:13.456Z,99605.41
2022-12-29T08:50:40.663Z,99614.19
2022-12-29T08:53:08.108Z,99624.22
2022-12-29T08:55:35.387Z,99620.56
2022-12-29T08:58:02.566Z,99615.72
2022-12-29T09:00:30.072Z,99616.97
2022-12-29T09:02:57.603Z,99615.66
2022-12-29T09:05:24.934Z,99608.78
2022-12-29T09:07:52.397Z,99606.25
2022-12-29T09:10:19.608Z,99592.09
2022-12-29T09:12:47.900Z,99601.47
2022-12-29T09:15:16.596Z,99599.22
2022-12-29T09:17:46.641Z,99598.25
2022-12-29T09:20:14.677Z,99589.78
2022-12-29T09:22:42.442Z,99581.06
2022-12-29T09:25:10.225Z,99594.38
2022-12-29T09:27:37.897Z,99582.72
2022-12-29T09:30:06.963Z,99585.84
2022-12-29T09:32:36.042Z,99580.06
2022-12-29T09:35:05.445Z,99582.00
2022-12-29T09:37:32.886Z,99572.75
2022-12-29T09:40:00.383Z,99568.28
2022-12-29T09:42:54.223Z,99568.06
2022-12-29T09:45:24.293Z,99558.94
2022-12-29T09:47:51.846Z,99552.69
2022-12-29T09:50:19.011Z,99566.00
2022-12-29T09:53:06.304Z,99561.38
2022-12-29T09:55:38.233Z,99552.31
2022-12-29T09:58:15.326Z,99553.47
2022-12-29T10:00:54.575Z,99554.62
2022-12-29T10:03:26.288Z,99551.31
2022-12-29T10:06:03.986Z,99547.72
2022-12-29T10:08:36.391Z,99543.78
2022-12-29T10:11:22.560Z,99540.81
2022-12-29T10:13:55.845Z,99548.75
2022-12-29T10:16:44.989Z,99551.50
2022-12-29T10:19:28.273Z,99547.12
2022-12-29T10:21:58.500Z,99541.16
2022-12-29T10:24:25.949Z,99532.16
2022-12-29T10:26:53.197Z,99534.47
2022-12-29T10:29:21.448Z,99522.72
2022-12-29T10:31:50.308Z,99528.00
2022-12-29T10:34:23.668Z,99516.28
2022-12-29T10:37:14.953Z,99523.09
2022-12-29T10:39:44.453Z,99527.09
2022-12-29T10:42:16.763Z,99512.91
2022-12-29T10:44:43.921Z,99514.34
2022-12-29T10:47:13.495Z,99520.16
2022-12-29T10:49:41.858Z,99515.94
2022-12-29T10:52:10.757Z,99516.28
2022-12-29T10:55:04.668Z,99519.41
2022-12-29T10:57:33.171Z,99516.56
2022-12-29T11:00:00.879Z,99501.19
2022-12-29T11:02:34.192Z,99496.53
2022-12-29T11:05:05.850Z,99496.53
2022-12-29T11:07:32.985Z,99500.88
2022-12-29T11:10:18.941Z,99505.53
2022-12-29T11:13:06.522Z,99502.50
2022-12-29T11:15:44.240Z,99501.06
2022-12-29T11:18:22.577Z,99502.59
2022-12-29T11:20:50.899Z,99498.37
2022-12-29T11:23:35.310Z,99496.41
2022-12-29T11:26:08.822Z,99499.41
2022-12-29T11:28:36.498Z,99494.44
2022-12-29T11:31:04.324Z,99488.03
2022-12-29T11:33:38.603Z,99482.09
2022-12-29T11:36:16.484Z,99468.88
2022-12-29T11:38:47.216Z,99468.16
2022-12-29T11:41:14.961Z,99469.22
2022-12-29T11:43:43.114Z,99473.94
2022-12-29T11:46:19.298Z,99470.09
2022-12-29T11:48:47.228Z,99465.16
2022-12-29T11:51:14.471Z,99464.34
2022-12-29T11:53:46.059Z,99460.00
2022-12-29T11:56:14.348Z,99476.19
2022-12-29T11:58:41.697Z,99480.66
2022-12-29T12:01:17.576Z,99471.88
2022-12-29T12:04:00.503Z,99477.66
2022-12-29T12:06:28.371Z,99482.97
2022-12-29T12:09:07.252Z,99473.56
2022-12-29T12:11:39.064Z,99463.12
2022-12-29T12:14:18.869Z,99465.13
2022-12-29T12:16:49.637Z,99468.53
2022-12-29T12:19:17.125Z,99456.72
2022-12-29T12:21:46.168Z,99453.69
2022-12-29T12:24:21.397Z,99446.91
2022-12-29T12:26:48.840Z,99466.59
2022-12-29T12:29:17.795Z,99462.19
2022-12-29T12:31:47.074Z,99458.63
2022-12-29T12:34:26.004Z,99443.25
2022-12-29T12:37:12.054Z,99434.19
2022-12-29T12:39:42.280Z,99427.75
2022-12-29T12:42:12.582Z,99428.59
2022-12-29T12:44:51.582Z,99429.69
2022-12-29T12:47:28.969Z,99421.91
2022-12-29T12:50:12.469Z,99425.75
2022-12-29T12:52:50.442Z,99415.38
2022-12-29T12:55:17.911Z,99417.97
2022-12-29T12:58:06.628Z,99423.34
2022-12-29T13:00:35.834Z,99420.34
2022-12-29T13:03:06.831Z,99422.50
2022-12-29T13:05:37.698Z,99422.06
2022-12-29T13:08:08.194Z,99424.47
2022-12-29T13:10:35.602Z,99428.47
2022-12-29T13:13:21.456Z,99413.69
2022-12-29T13:15:57.578Z,99413.22
2022-12-29T13:18:30.411Z,99421.66
2022-12-29T13:21:03.888Z,99418.94
2022-12-29T13:23:37.344Z,99424.88
2022-12-29T13:26:16.493Z,99423.56
2022-12-29T13:28:55.253Z,99431.97
2022-12-29T13:31:31.760Z,99434.12
2022-12-29T13:34:07.819Z,99438.28
2022-12-29T13:36:38.158Z,99442.50
2022-12-29T13:39:06.949Z,99435.44
2022-12-29T13:41:37.359Z,99432.78
2022-12-29T13:44:04.699Z,99434.94
2022-12-29T13:46:36.216Z,99434.34
2022-12-29T13:49:13.696Z,99428.25
2022-12-29T13:51:45.585Z,99422.53
2022-12-29T13:54:31.938Z,99436.94
2022-12-29T13:57:04.988Z,99435.78
2022-12-29T13:59:42.687Z,99447.78
2022-12-29T14:02:19.151Z,99448.53
2022-12-29T14:04:56.579Z,99439.13
2022-12-29T14:07:23.858Z,99437.69
2022-12-29T14:09:52.423Z,99440.88
2022-12-29T14:12:25.354Z,99440.88
2022-12-29T14:14:52.828Z,99438.38
2022-12-29T14:17:20.912Z,99450.53
2022-12-29T14:19:48.143Z,99453.34
2022-12-29T14:22:16.515Z,99445.91
2022-12-29T14:24:44.674Z,99446.78
2022-12-29T14:27:12.137Z,99446.53
2022-12-29T14:29:39.900Z,99436.84
2022-12-29T14:32:25.381Z,99443.81
2022-12-29T14:34:55.731Z,99438.78
2022-12-29T14:37:24.374Z,99440.72
2022-12-29T14:39:54.148Z,99448.34
2022-12-29T14:42:23.682Z,99449.03
2022-12-29T14:44:50.939Z,99452.78
2022-12-29T14:47:21.006Z,99453.09
2022-12-29T14:49:48.543Z,99440.34
2022-12-29T14:52:26.260Z,99451.59
2022-12-29T14:55:12.508Z,99441.16
2022-12-29T14:57:42.979Z,99463.28
2022-12-29T15:00:17.823Z,99460.78
2022-12-29T15:02:46.498Z,99454.53
2022-12-29T15:05:33.053Z,99445.25
2022-12-29T15:08:00.531Z,99453.69
2022-12-29T15:10:28.200Z,99452.59
2022-12-29T15:12:55.898Z,99454.63
2022-12-29T15:15:24.550Z,99458.97
2022-12-29T15:17:52.029Z,99455.47
2022-12-29T15:20:26.949Z,99468.16
2022-12-29T15:23:02.124Z,99464.59
2022-12-29T15:25:29.279Z,99459.87
2022-12-29T15:28:04.090Z,99460.44
2022-12-29T15:30:31.278Z,99466.56
2022-12-29T15:32:58.744Z,99474.28
2022-12-29T15:35:27.466Z,99462.56
2022-12-29T15:37:54.621Z,99459.63
2022-12-29T15:40:26.985Z,99462.72
2022-12-29T15:42:54.162Z,99469.81
2022-12-29T15:45:21.677Z,99468.91
2022-12-29T15:47:50.308Z,99472.56
2022-12-29T15:50:33.791Z,99470.34
2022-12-29T15:53:01.247Z,99479.25
2022-12-29T15:55:30.444Z,99473.34
2022-12-29T15:57:58.936Z,99471.06
2022-12-29T16:00:30.329Z,99469.81
2022-12-29T16:02:58.482Z,99475.75
2022-12-29T16:05:25.935Z,99470.66
2022-12-29T16:07:54.086Z,99473.28
2022-12-29T16:10:23.721Z,99468.94
2022-12-29T16:12:50.912Z,99474.69
2022-12-29T16:15:18.051Z,99481.28
2022-12-29T16:17:54.357Z,99481.19
2022-12-29T16:20:22.781Z,99483.50
2022-12-29T16:22:51.748Z,99474.47
2022-12-29T16:25:32.702Z,99474.44
2022-12-29T16:28:00.670Z,99467.13
2022-12-29T16:30:34.080Z,99476.47
2022-12-29T16:33:02.837Z,99477.69
2022-12-29T16:35:31.126Z,99475.97
2022-12-29T16:38:27.844Z,99485.03
2022-12-29T16:40:56.153Z,99482.31
2022-12-29T16:43:30.549Z,99477.56
2022-12-29T16:46:01.015Z,99474.91
2022-12-29T16:48:38.050Z,99481.66
2022-12-29T16:51:06.674Z,99494.03
2022-12-29T16:53:37.111Z,99495.38
2022-12-29T16:56:10.212Z,99497.84
2022-12-29T16:58:37.994Z,99490.34
2022-12-29T17:01:06.787Z,99492.53
2022-12-29T17:03:35.985Z,99491.75
2022-12-29T17:06:03.703Z,99510.03
2022-12-29T17:08:39.266Z,99501.19
2022-12-29T17:11:28.131Z,99503.06
2022-12-29T17:13:55.304Z,99493.47
2022-12-29T17:16:22.745Z,99492.28
2022-12-29T17:18:49.938Z,99493.25
2022-12-29T17:21:17.168Z,99486.78
2022-12-29T17:23:44.661Z,99486.59
2022-12-29T17:26:11.822Z,99482.72
2022-12-29T17:28:39.982Z,99477.88
2022-12-29T17:31:07.513Z,99485.25
2022-12-29T17:33:38.645Z,99489.09
2022-12-29T17:36:05.924Z,99490.34
2022-12-29T17:38:35.441Z,99489.16
2022-12-29T17:41:02.633Z,99499.22
2022-12-29T17:43:36.336Z,99491.16
2022-12-29T17:46:06.073Z,99486.62
2022-12-29T17:48:33.298Z,99474.66
2022-12-29T17:51:00.459Z,99469.22
2022-12-29T17:53:28.557Z,99475.16
2022-12-29T17:55:55.788Z,99474.59
2022-12-29T17:58:23.592Z,99465.19
2022-12-29T18:01:00.989Z,99469.81
2022-12-29T18:03:30.072Z,99463.97
2022-12-29T18:05:57.705Z,99470.56
2022-12-29T18:08:24.986Z,99469.22
2022-12-29T18:10:53.913Z,99470.91
2022-12-29T18:13:22.684Z,99473.66
2022-12-29T18:15:50.456Z,99478.94
2022-12-29T18:18:19.178Z,99479.41
2022-12-29T18:20:47.203Z,99472.50
2022-12-29T18:23:20.582Z,99467.50
2022-12-29T18:25:49.956Z,99461.00
2022-12-29T18:28:17.194Z,99466.87
2022-12-29T18:30:44.439Z,99455.84
2022-12-29T18:33:21.308Z,99461.56
2022-12-29T18:35:49.814Z,99456.34
2022-12-29T18:38:17.538Z,99452.06
2022-12-29T18:40:45.084Z,99455.75
2022-12-29T18:43:15.889Z,99468.59
2022-12-29T18:45:45.995Z,99468.66
2022-12-29T18:48:13.864Z,99464.47
2022-12-29T18:50:41.675Z,99467.97
2022-12-29T18:53:15.953Z,99454.47
2022-12-29T18:55:43.127Z,99457.88
2022-12-29T18:58:10.585Z,99454.34
2022-12-29T19:00:38.206Z,99454.00
2022-12-29T19:03:07.780Z,99459.87
2022-12-29T19:05:39.011Z,99463.44
2022-12-29T19:08:06.544Z,99461.50
2022-12-29T19:10:34.020Z,99458.53
2022-12-29T19:13:02.927Z,99452.53
2022-12-29T19:15:32.270Z,99451.41
2022-12-29T19:20:50.845Z,99447.00
2022-12-29T19:23:19.414Z,99446.88
2022-12-29T19:25:47.006Z,99445.72
2022-12-29T19:28:21.471Z,99438.41
2022-12-29T19:30:52.181Z,99449.41
2022-12-29T19:33:21.526Z,99459.53
2022-12-29T19:35:49.873Z,99452.63
2022-12-29T19:38:17.499Z,99451.72
2022-12-29T19:40:46.930Z,99441.31
2022-12-29T19:43:14.257Z,99447.03
2022-12-29T19:45:41.959Z,99439.31
2022-12-29T19:48:12.350Z,99448.09
2022-12-29T19:50:39.671Z,99438.91
2022-12-29T19:53:07.104Z,99437.66
2022-12-29T19:55:34.951Z,99438.25
2022-12-29T19:58:02.698Z,99436.34
2022-12-29T20:00:32.483Z,99434.25
2022-12-29T20:03:00.398Z,99438.47
2022-12-29T20:05:28.209Z,99437.16
2022-12-29T20:07:55.394Z,99436.97
2022-12-29T20:10:22.874Z,99444.34
2022-12-29T20:12:50.319Z,99430.94
2022-12-29T20:15:17.640Z,99431.41
2022-12-29T20:18:12.468Z,99430.06
2022-12-29T20:20:33.736Z,99431.03
2022-12-29T20:23:01.280Z,99430.47
2022-12-29T20:25:46.388Z,99430.41
2022-12-29T20:28:15.559Z,99427.47
2022-12-29T20:30:44.050Z,99434.31
2022-12-29T20:33:11.299Z,99434.00
2022-12-29T20:35:39.477Z,99430.78
2022-12-29T20:38:06.857Z,99427.41
2022-12-29T20:40:38.011Z,99416.59
2022-12-29T20:43:10.056Z,99416.75
2022-12-29T20:45:37.670Z,99424.09
2022-12-29T20:48:05.032Z,99417.53
2022-12-29T20:50:32.513Z,99414.37
2022-12-29T20:52:59.754Z,99415.19
2022-12-29T20:55:27.008Z,99415.94
2022-12-29T20:58:23.234Z,99404.31
2022-12-29T21:00:42.348Z,99417.56
2022-12-29T21:03:10.388Z,99412.94
2022-12-29T21:05:38.197Z,99413.22
2022-12-29T21:08:05.616Z,99411.50
2022-12-29T21:10:33.710Z,99408.63
2022-12-29T21:13:01.653Z,99409.59
2022-12-29T21:15:30.045Z,99399.56
2022-12-29T21:17:57.501Z,99403.69
2022-12-29T21:20:32.112Z,99408.25
2022-12-29T21:23:01.327Z,99409.56
2022-12-29T21:25:37.238Z,99410.16
2022-12-29T21:28:08.484Z,99406.75
2022-12-29T21:30:35.965Z,99412.47
2022-12-29T21:33:03.453Z,99406.34
2022-12-29T21:35:31.072Z,99413.69
2022-12-29T21:37:58.374Z,99419.28
2022-12-29T21:40:26.241Z,99418.31
2022-12-29T21:42:54.481Z,99413.19
2022-12-29T21:45:28.574Z,99415.47
2022-12-29T21:48:17.480Z,99418.94
2022-12-29T21:51:04.207Z,99408.16
2022-12-29T21:53:43.899Z,99416.19
2022-12-29T21:56:11.096Z,99411.97
2022-12-29T21:58:57.907Z,99422.88
2022-12-29T22:01:44.310Z,99415.69
2022-12-29T22:04:31.375Z,99423.47
2022-12-29T22:07:17.264Z,99422.66
2022-12-29T22:10:03.725Z,99422.72
2022-12-29T22:12:50.404Z,99422.66
2022-12-29T22:15:17.990Z,99424.13
2022-12-29T22:17:49.242Z,99424.81
2022-12-29T22:20:17.352Z,99420.38
2022-12-29T22:22:44.885Z,99409.69
2022-12-29T22:25:12.397Z,99403.69
2022-12-29T22:27:39.618Z,99409.81
2022-12-29T22:30:07.493Z,99402.31
2022-12-29T22:32:34.754Z,99393.31
2022-12-29T22:35:08.008Z,99396.22
2022-12-29T22:37:36.551Z,99394.81
2022-12-29T22:40:07.647Z,99394.41
2022-12-29T22:42:34.944Z,99378.31
2022-12-29T22:45:05.454Z,99390.50
2022-12-29T22:47:32.647Z,99392.88
2022-12-29T22:50:00.420Z,99395.91
2022-12-29T22:52:33.758Z,99394.66
2022-12-29T22:55:06.484Z,99402.84
2022-12-29T22:57:34.960Z,99393.16
2022-12-29T23:00:02.530Z,99393.94
2022-12-29T23:02:30.499Z,99396.25
2022-12-29T23:05:03.473Z,99398.56
2022-12-29T23:07:32.827Z,99410.66
2022-12-29T23:10:00.476Z,99403.06
2022-12-29T23:12:32.150Z,99406.59
2022-12-29T23:14:59.744Z,99401.81
2022-12-29T23:17:26.997Z,99401.88
2022-12-29T23:19:54.395Z,99395.16
2022-12-29T23:22:26.000Z,99396.19
2022-12-29T23:24:53.169Z,99401.91
2022-12-29T23:27:20.365Z,99406.03
2022-12-29T23:29:48.066Z,99393.56
2022-12-29T23:32:15.664Z,99391.28
2022-12-29T23:34:43.084Z,99398.19
2022-12-29T23:37:10.613Z,99393.78
2022-12-29T23:39:37.939Z,99391.00
2022-12-29T23:42:05.455Z,99384.66
2022-12-29T23:44:33.102Z,99388.16
2022-12-29T23:47:00.321Z,99393.31
2022-12-29T23:49:27.530Z,99392.53
2022-12-29T23:51:56.922Z,99386.91
2022-12-29T23:54:25.549Z,99381.66
2022-12-29T23:56:54.757Z,99377.47
2022-12-29T23:59:24.908Z,99376.41
